createdAt,value
2022-09-12T00:01:08.289Z,99.90
2022-09-12T10:39:06.236Z,99.90
2022-09-12T10:49:38.347Z,99.90
2022-09-12T10:52:23.572Z,99.90
2022-09-12T10:54:54.706Z,99.90
2022-09-12T10:57:47.597Z,99.90
2022-09-12T11:00:20.754Z,99.90
2022-09-12T11:11:05.259Z,99.90
2022-09-12T11:13:50.407Z,99.20
2022-09-12T11:16:21.849Z,98.70
2022-09-12T11:57:08.863Z,93.90
2022-09-12T11:59:52.291Z,91.60
2022-09-12T12:02:31.096Z,92.60
2022-09-12T12:05:16.063Z,93.20
2022-09-12T12:07:54.266Z,92.10
2022-09-12T12:10:39.249Z,90.60
2022-09-12T12:13:20.263Z,87.30
2022-09-12T12:16:08.771Z,88.00
2022-09-12T12:18:40.154Z,89.10
2022-09-12T12:21:31.896Z,87.90
2022-09-12T12:24:07.525Z,87.10
2022-09-12T12:26:43.161Z,89.70
2022-09-12T12:29:16.418Z,85.30
2022-09-12T12:32:04.290Z,84.10
2022-09-12T12:34:41.358Z,86.40
2022-09-12T12:37:23.138Z,83.50
2022-09-12T12:39:50.972Z,82.40
2022-09-12T12:42:33.748Z,81.30
2022-09-12T12:45:09.869Z,82.50
2022-09-12T12:47:36.626Z,81.20
2022-09-12T12:50:08.285Z,81.80
2022-09-12T12:53:03.701Z,81.10
2022-09-12T12:55:34.451Z,80.80
2022-09-12T12:58:07.189Z,79.70
2022-09-12T13:00:36.844Z,76.90
2022-09-12T13:03:09.305Z,74.50
2022-09-12T13:06:01.279Z,75.30
2022-09-12T13:08:31.677Z,76.10
2022-09-12T13:11:03.602Z,76.80
2022-09-12T13:13:56.974Z,76.10
2022-09-12T13:16:53.889Z,77.20
2022-09-12T13:19:29.399Z,78.40
2022-09-12T13:22:00.755Z,78.70
2022-09-12T13:24:28.377Z,77.80
2022-09-12T13:26:55.403Z,77.50
2022-09-12T13:29:25.016Z,77.90
2022-09-12T13:31:54.294Z,76.30
2022-09-12T13:34:31.625Z,78.40
2022-09-12T13:37:25.500Z,80.60
2022-09-12T13:40:05.693Z,78.20
2022-09-12T13:42:42.697Z,78.00
2022-09-12T13:45:18.420Z,76.80
2022-09-12T13:47:47.572Z,75.80
2022-09-12T13:50:25.013Z,74.50
2022-09-12T13:53:09.142Z,71.90
2022-09-12T13:55:47.856Z,74.30
2022-09-12T13:58:25.545Z,74.30
2022-09-12T14:01:07.996Z,74.40
2022-09-12T14:03:59.237Z,73.30
2022-09-12T14:06:27.910Z,74.30
2022-09-12T14:09:01.608Z,72.10
2022-09-12T14:11:30.993Z,72.70
2022-09-12T14:13:58.323Z,72.70
2022-09-12T14:16:29.291Z,71.20
2022-09-12T14:18:58.363Z,70.90
2022-09-12T14:21:26.022Z,69.90
2022-09-12T14:23:53.467Z,70.80
2022-09-12T14:26:22.062Z,70.50
2022-09-12T14:28:50.831Z,72.10
2022-09-12T14:31:23.099Z,70.20
2022-09-12T14:33:49.825Z,69.50
2022-09-12T14:36:35.640Z,69.40
2022-09-12T14:39:14.457Z,69.70
2022-09-12T14:41:43.313Z,70.90
2022-09-12T14:44:19.164Z,70.30
2022-09-12T14:46:47.846Z,74.30
2022-09-12T14:49:22.578Z,71.20
2022-09-12T14:51:52.528Z,73.40
2022-09-12T14:54:28.493Z,71.90
2022-09-12T14:57:20.017Z,71.00
2022-09-12T14:59:48.179Z,71.00
2022-09-12T15:02:26.290Z,70.40
2022-09-12T15:05:18.702Z,72.00
2022-09-12T15:07:51.329Z,71.90
2022-09-12T15:10:27.171Z,70.80
2022-09-12T15:13:19.452Z,72.00
2022-09-12T15:16:05.130Z,72.10
2022-09-12T15:18:31.978Z,71.50
2022-09-12T15:21:03.754Z,72.30
2022-09-12T15:23:54.149Z,76.10
2022-09-12T15:26:24.008Z,72.00
2022-09-12T15:28:51.716Z,74.20
2022-09-12T15:31:30.819Z,73.30
2022-09-12T15:34:00.240Z,74.00
2022-09-12T15:36:28.819Z,75.60
2022-09-12T15:38:56.407Z,75.70
2022-09-12T15:41:38.265Z,74.70
2022-09-12T15:44:06.867Z,73.30
2022-09-12T15:46:34.155Z,74.00
2022-09-12T15:49:01.333Z,72.60
2022-09-12T15:51:28.249Z,73.20
2022-09-12T15:53:55.064Z,74.30
2022-09-12T15:56:23.066Z,76.90
2022-09-12T15:58:58.664Z,77.00
2022-09-12T16:01:27.464Z,76.70
2022-09-12T16:06:22.293Z,76.10
2022-09-12T16:08:49.570Z,76.60
2022-09-12T16:11:25.799Z,77.70
2022-09-12T16:13:53.969Z,78.90
2022-09-12T16:16:20.973Z,79.80
2022-09-12T16:18:48.037Z,78.50
2022-09-12T16:21:15.968Z,79.10
2022-09-12T16:23:47.094Z,79.80
2022-09-12T16:26:14.454Z,78.40
2022-09-12T16:28:41.462Z,80.00
2022-09-12T16:31:10.989Z,80.80
2022-09-12T16:33:38.718Z,79.10
2022-09-12T16:36:08.474Z,79.10
2022-09-12T16:38:40.583Z,80.20
2022-09-12T16:41:07.741Z,79.90
2022-09-12T16:43:35.933Z,78.90
2022-09-12T16:46:07.279Z,79.20
2022-09-12T16:48:34.587Z,81.10
2022-09-12T16:51:04.097Z,81.60
2022-09-12T16:53:32.401Z,81.70
2022-09-12T16:55:59.869Z,81.80
2022-09-12T16:58:27.035Z,81.50
2022-09-12T17:01:02.282Z,80.00
2022-09-12T17:03:29.820Z,82.60
2022-09-12T17:06:03.777Z,83.00
2022-09-12T17:08:32.740Z,83.40
2022-09-12T17:11:01.414Z,83.70
2022-09-12T17:13:46.599Z,81.80
2022-09-12T17:16:16.383Z,82.80
2022-09-12T17:18:43.512Z,83.60
2022-09-12T17:21:11.975Z,83.90
2022-09-12T17:23:39.951Z,83.90
2022-09-12T17:26:07.711Z,85.10
2022-09-12T17:28:35.482Z,84.20
2022-09-12T17:31:04.789Z,84.60
2022-09-12T17:33:32.076Z,85.10
2022-09-12T17:36:15.150Z,84.40
2022-09-12T17:38:43.201Z,86.20
2022-09-12T17:41:17.936Z,87.30
2022-09-12T17:43:51.123Z,87.20
2022-09-12T17:46:22.269Z,88.40
2022-09-12T17:48:57.332Z,88.90
2022-09-12T17:51:26.214Z,89.30
2022-09-12T18:04:22.503Z,89.90
2022-09-12T18:06:49.878Z,91.20
2022-09-12T18:09:22.177Z,91.70
2022-09-12T18:11:50.087Z,91.60
2022-09-12T18:14:17.572Z,91.70
2022-09-12T18:16:44.830Z,92.00
2022-09-12T18:19:12.417Z,92.00
2022-09-12T18:21:39.649Z,92.20
2022-09-12T18:24:06.863Z,92.50
2022-09-12T18:26:34.003Z,92.60
2022-09-12T18:29:01.117Z,92.30
2022-09-12T18:31:29.911Z,93.10
2022-09-12T18:33:57.711Z,93.60
2022-09-12T18:36:24.836Z,93.40
2022-09-12T18:38:51.930Z,93.50
2022-09-12T18:41:22.038Z,93.00
2022-09-12T18:43:49.873Z,93.40
2022-09-12T18:46:19.157Z,93.80
2022-09-12T18:48:46.814Z,94.00
2022-09-12T18:51:15.308Z,94.20
2022-09-12T18:53:42.984Z,94.50
2022-09-12T18:56:13.586Z,94.60
2022-09-12T18:58:42.655Z,94.60
2022-09-12T19:01:10.533Z,95.30
2022-09-12T19:03:37.539Z,95.30
2022-09-12T19:06:25.240Z,95.30
2022-09-12T19:08:53.503Z,95.30
2022-09-12T19:11:21.455Z,95.40
2022-09-12T19:13:49.951Z,95.60
2022-09-12T19:16:20.054Z,95.50
2022-09-12T19:18:49.621Z,95.80
2022-09-12T19:21:25.093Z,96.10
2022-09-12T19:23:53.756Z,95.40
2022-09-12T19:26:21.849Z,95.90
2022-09-12T19:28:49.737Z,95.30
2022-09-12T19:31:19.179Z,95.70
2022-09-12T19:33:46.528Z,96.10
2022-09-12T19:36:43.292Z,96.10
